Giove Jet — IJNX — position and weather

sailwx.info

Track history (hours):
 
Tides and Currents Weather Stations Pressure Air Temp Water Temp Dewpoint Dewpoint Depression Visibility Wind Speed Wind Dir Waves Ship Positions

Giove Jet

Last reported at 2016-Jun-30 12:33 UTC. Time now 2016-Jun-30 15:55 UTC.
Position N 40°49' E 014°17'.

Length 33 m; draft 1.2 m.

MMSI: 247049500.

Date/timePositionNaut miles runAvg speedWind from/ knotsBaromVisibWave heightAir tempDewpointWater temp
2016-Jun-30 12:33N 40°49' E 014°17'1313.0
2016-Jun-30 11:33N 40°46' E 014°00'7 5.0
2016-Jun-30 10:13N 40°44' E 013°52'912.3
2016-Jun-30 09:29N 40°47' E 014°03'11 0.6
2016-Jun-29 15:33N 40°50' E 014°17'1514.3
2016-Jun-29 14:30N 40°45' E 013°58'2 1.1
2016-Jun-29 12:18N 40°46' E 013°55'1114.9
2016-Jun-29 11:34N 40°47' E 014°09'6 6.2
2016-Jun-29 10:33N 40°49' E 014°17'1717.2
2016-Jun-29 09:34N 40°46' E 013°55'15 0.8
2016-Jun-28 14:33N 40°50' E 014°14'2 0.2
2016-Jun-28 06:33N 40°48' E 014°13'1 0.1
2016-Jun-27 13:33N 40°49' E 014°14'2 1.9
2016-Jun-27 12:33N 40°48' E 014°12'1312.5
2016-Jun-27 11:33N 40°45' E 013°56'1413.7
2016-Jun-27 10:32N 40°50' E 014°14'2 2.2
2016-Jun-27 09:30N 40°50' E 014°17'1617.2
2016-Jun-27 08:33N 40°45' E 013°56'11 5.6
2016-Jun-27 06:33N 40°47' E 014°11'3 0.3
2016-Jun-26 18:05N 40°50' E 014°14'0 0.1
2016-Jun-26 17:33N 40°50' E 014°14'10 9.7
2016-Jun-26 16:34N 40°45' E 014°03'9 7.3
2016-Jun-26 15:23N 40°44' E 013°52'4 4.4
2016-Jun-26 14:33N 40°45' E 013°56'12 6.2
2016-Jun-26 12:33N 40°48' E 014°12'1212.5
2016-Jun-26 11:33N 40°45' E 013°56'1413.7
2016-Jun-26 10:32N 40°50' E 014°14'2 2.0
2016-Jun-26 09:23N 40°50' E 014°17'1619.7
2016-Jun-26 08:33N 40°45' E 013°56'10 9.9
2016-Jun-26 07:33N 40°47' E 014°09'8 0.5
2016-Jun-25 14:16N 40°44' E 013°59'11 6.7
2016-Jun-25 12:33N 40°48' E 014°13'1313.4
2016-Jun-25 11:33N 40°45' E 013°56'1412.6
2016-Jun-25 10:27N 40°50' E 014°14'2 2.2
2016-Jun-25 09:23N 40°50' E 014°17'1619.7
2016-Jun-25 08:33N 40°45' E 013°56'1212.0
2016-Jun-25 07:33N 40°47' E 014°12'4 0.2
2016-Jun-24 15:34N 40°49' E 014°16'1615.6
2016-Jun-24 14:33N 40°45' E 013°56'13 6.4
2016-Jun-24 12:33N 40°48' E 014°13'8 7.9
2016-Jun-24 11:33N 40°46' E 014°03'11 8.2
2016-Jun-24 10:12N 40°50' E 014°17'1726.3
2016-Jun-24 09:33N 40°46' E 013°55'1 1.0
2016-Jun-24 08:33N 40°46' E 013°54'  
2016-Jun-21 12:24N 40°47' E 014°09'1011.7
2016-Jun-21 11:33N 40°45' E 013°56'1413.0
2016-Jun-21 10:29N 40°50' E 014°14'2 2.3
2016-Jun-21 09:30N 40°50' E 014°17'4 0.2
2016-Jun-20 12:33N 40°47' E 014°12'  
Track history (hours):
 
Tides and Currents Weather Stations Pressure Air Temp Water Temp Dewpoint Dewpoint Depression Visibility Wind Speed Wind Dir Waves Ship Positions

Giove Jet

Last reported at 2016-Jun-30 12:33 UTC. Time now 2016-Jun-30 15:55 UTC.
Position N 40°49' E 014°17'.

Length 33 m; draft 1.2 m.

MMSI: 247049500.

Date/timePositionNaut miles runAvg speedWind from/ knotsBaromVisibWave heightAir tempDewpointWater temp
2016-Jun-30 12:33N 40°49' E 014°17'1313.0
2016-Jun-30 11:33N 40°46' E 014°00'7 5.0
2016-Jun-30 10:13N 40°44' E 013°52'912.3
2016-Jun-30 09:29N 40°47' E 014°03'11 0.6
2016-Jun-29 15:33N 40°50' E 014°17'1514.3
2016-Jun-29 14:30N 40°45' E 013°58'2 1.1
2016-Jun-29 12:18N 40°46' E 013°55'1114.9
2016-Jun-29 11:34N 40°47' E 014°09'6 6.2
2016-Jun-29 10:33N 40°49' E 014°17'1717.2
2016-Jun-29 09:34N 40°46' E 013°55'15 0.8
2016-Jun-28 14:33N 40°50' E 014°14'2 0.2
2016-Jun-28 06:33N 40°48' E 014°13'1 0.1
2016-Jun-27 13:33N 40°49' E 014°14'2 1.9
2016-Jun-27 12:33N 40°48' E 014°12'1312.5
2016-Jun-27 11:33N 40°45' E 013°56'1413.7
2016-Jun-27 10:32N 40°50' E 014°14'2 2.2
2016-Jun-27 09:30N 40°50' E 014°17'1617.2
2016-Jun-27 08:33N 40°45' E 013°56'11 5.6
2016-Jun-27 06:33N 40°47' E 014°11'3 0.3
2016-Jun-26 18:05N 40°50' E 014°14'0 0.1
2016-Jun-26 17:33N 40°50' E 014°14'10 9.7
2016-Jun-26 16:34N 40°45' E 014°03'9 7.3
2016-Jun-26 15:23N 40°44' E 013°52'4 4.4
2016-Jun-26 14:33N 40°45' E 013°56'12 6.2
2016-Jun-26 12:33N 40°48' E 014°12'1212.5
2016-Jun-26 11:33N 40°45' E 013°56'1413.7
2016-Jun-26 10:32N 40°50' E 014°14'2 2.0
2016-Jun-26 09:23N 40°50' E 014°17'1619.7
2016-Jun-26 08:33N 40°45' E 013°56'10 9.9
2016-Jun-26 07:33N 40°47' E 014°09'8 0.5
2016-Jun-25 14:16N 40°44' E 013°59'11 6.7
2016-Jun-25 12:33N 40°48' E 014°13'1313.4
2016-Jun-25 11:33N 40°45' E 013°56'1412.6
2016-Jun-25 10:27N 40°50' E 014°14'2 2.2
2016-Jun-25 09:23N 40°50' E 014°17'1619.7
2016-Jun-25 08:33N 40°45' E 013°56'1212.0
2016-Jun-25 07:33N 40°47' E 014°12'4 0.2
2016-Jun-24 15:34N 40°49' E 014°16'1615.6
2016-Jun-24 14:33N 40°45' E 013°56'13 6.4
2016-Jun-24 12:33N 40°48' E 014°13'8 7.9
2016-Jun-24 11:33N 40°46' E 014°03'11 8.2
2016-Jun-24 10:12N 40°50' E 014°17'1726.3
2016-Jun-24 09:33N 40°46' E 013°55'1 1.0
2016-Jun-24 08:33N 40°46' E 013°54'  
2016-Jun-21 12:24N 40°47' E 014°09'1011.7
2016-Jun-21 11:33N 40°45' E 013°56'1413.0
2016-Jun-21 10:29N 40°50' E 014°14'2 2.3
2016-Jun-21 09:30N 40°50' E 014°17'4 0.2
2016-Jun-20 12:33N 40°47' E 014°12'  

Dump ship's entire track history